Latest Weather Observations for Edinburgh

IDS60801

Issued at 5:32 pm CDT Friday 19 December 2014 (issued every 30 minutes, with the page automatically refreshed every 10 minutes)

About weather observations | Map of weather stations | Latest weather observations for SA | Other Formats
Station Details ID: 023083 Name: EDINBURGH RAAF Lat: -34.71 Lon: 138.62 Height: 16.54 m
Data from the previous 72 hours. | See also: Recent months at Edinburgh
Date/Time
CDT
Temp
°C
App
Temp
°C
Dew
Point
Rel
Hum
%
Delta-T
°C
Wind Press
QNH
hPa
Press
MSL
hPa
Rain
since 9 am
mm
Dir
 
Spd
km/h
Gust
km/h
Spd
kts
Gust
kts
19/05:30pm 22.5 16.7 7.9 39 7.6 SSW 28 35 15 19 1018.8 1018.7 0.0
19/05:00pm 22.6 16.6 7.2 37 8.0 SSW 28 37 15 20 1018.9 1018.8 0.0
19/04:30pm 22.6 17.3 8.3 40 7.5 SSW 26 35 14 19 1019.2 1019.1 0.0
19/04:00pm 22.5 17.2 8.6 41 7.4 SW 26 35 14 19 1019.4 1019.3 0.0
19/03:30pm 22.4 17.7 9.2 43 7.1 SSW 24 33 13 18 1019.7 1019.6 0.0
19/03:00pm 21.8 17.2 8.3 42 7.1 SW 22 30 12 16 1019.9 1019.8 0.0
19/02:30pm 22.3 18.1 8.4 41 7.3 SW 20 32 11 17 1020.1 1020.0 0.0
19/02:00pm 22.0 17.6 8.9 43 7.0 SW 22 32 12 17 1020.4 1020.3 0.0
19/01:30pm 22.2 17.6 8.3 41 7.3 SW 22 35 12 19 1020.4 1020.3 0.0
19/01:00pm 20.8 15.8 8.1 44 6.6 SSW 24 35 13 19 1020.7 1020.6 0.0
19/12:30pm 21.2 15.4 7.8 42 6.9 SW 28 37 15 20 1020.8 1020.7 0.0
19/12:00pm 21.1 15.1 7.0 40 7.2 SW 28 41 15 22 1020.6 1020.5 0.0
19/11:30am 21.2 17.2 6.7 39 7.3 SW 17 28 9 15 1020.6 1020.5 0.0
19/11:00am 20.5 17.3 5.3 37 7.5 SE 11 17 6 9 1020.5 1020.4 0.0
19/10:30am 19.6 16.3 4.5 37 7.2 S 11 19 6 10 1020.6 1020.5 0.0
19/10:00am 19.4 17.0 5.1 39 7.0 S 7 13 4 7 1020.6 1020.5 0.0
19/09:30am 18.2 14.5 4.4 40 6.5 SSW 13 22 7 12 1020.7 1020.6 0.0
19/09:00am 18.2 15.1 5.4 43 6.2 SSE 11 20 6 11 1020.4 1020.3 0.0
19/08:30am 17.1 14.2 6.3 49 5.3 SSE 11 17 6 9 1020.2 1020.1 0.0
19/08:00am 16.6 14.4 6.4 51 5.0 SSE 7 13 4 7 1019.9 1019.8 0.0
19/07:30am 15.1 14.3 6.7 57 4.1 CALM 0 6 0 3 1019.6 1019.5 0.0
19/07:00am 13.1 11.1 7.1 67 2.9 N 7 7 4 4 1019.1 1019.0 0.0
19/06:30am 12.4 11.3 6.9 69 2.6 SE 2 6 1 3 1018.7 1018.6 0.0
19/06:00am 11.0 9.4 6.2 72 2.2 SE 4 7 2 4 1018.4 1018.3 0.0
19/05:30am 11.4 9.4 6.3 71 2.4 NE 6 7 3 4 1018.2 1018.1 0.0
19/05:00am 11.9 9.9 6.4 69 2.6 NNE 6 9 3 5 1018.2 1018.1 0.0
19/04:30am 13.1 11.3 7.1 67 2.9 ESE 6 7 3 4 1017.9 1017.8 0.0
19/04:00am 11.4 10.0 5.7 68 2.6 SSE 2 6 1 3 1017.9 1017.8 0.0
19/03:30am 13.7 11.8 6.8 63 3.3 ESE 6 9 3 5 1017.8 1017.7 0.0
19/03:00am 13.8 11.8 6.9 63 3.3 SE 7 9 4 5 1017.9 1017.8 0.0
19/02:30am 14.1 12.1 7.2 63 3.4 SE 7 9 4 5 1018.1 1018.0 0.0
19/02:00am 14.4 12.4 7.2 62 3.5 SSE 7 9 4 5 1018.1 1018.0 0.0
19/01:30am 14.6 12.6 7.2 61 3.6 SSE 7 9 4 5 1018.1 1018.0 0.0
19/01:00am 15.1 12.8 7.4 60 3.8 SSE 9 13 5 7 1018.0 1017.9 0.0
19/12:30am 15.3 12.9 7.1 58 4.0 S 9 15 5 8 1018.0 1017.9 0.0
19/12:00am 15.7 12.8 6.4 54 4.5 S 11 15 6 8 1018.0 1017.9 0.0
 
Date/Time
CDT
Temp
°C
App
Temp
°C
Dew
Point
Rel
Hum
%
Delta-T
°C
Wind Press
QNH
hPa
Press
MSL
hPa
Rain
since 9 am
mm
Dir
 
Spd
km/h
Gust
km/h
Spd
kts
Gust
kts
18/11:30pm 16.1 12.4 6.3 52 4.8 S 15 24 8 13 1017.8 1017.7 0.0
18/11:00pm 16.6 12.3 5.3 47 5.4 S 17 24 9 13 1017.4 1017.3 0.0
18/10:30pm 17.1 13.0 6.3 49 5.3 S 17 24 9 13 1017.1 1017.0 0.0
18/10:00pm 17.2 12.6 6.7 50 5.2 SSW 20 24 11 13 1016.7 1016.6 0.0
18/09:30pm 17.4 13.0 7.5 52 5.0 SSW 20 26 11 14 1016.4 1016.3 0.0
18/09:00pm 17.6 13.2 7.4 51 5.1 SSW 20 26 11 14 1016.1 1016.0 0.0
18/08:30pm 18.1 13.0 7.8 51 5.2 SSW 24 30 13 16 1015.9 1015.8 0.0
18/08:00pm 18.8 13.9 8.5 51 5.3 SSW 24 32 13 17 1015.5 1015.4 0.0
18/07:30pm 19.2 13.6 10.2 56 4.8 SSW 30 39 16 21 1015.1 1015.0 0.0
18/07:00pm 19.6 13.1 10.3 55 5.0 SSW 35 43 19 23 1014.8 1014.7 0.0
18/06:30pm 20.5 14.0 10.3 52 5.5 SSW 35 43 19 23 1014.4 1014.3 0.0
18/06:00pm 21.3 14.5 9.2 46 6.4 SSW 35 44 19 24 1013.8 1013.7 0.0
18/05:30pm 22.0 15.2 9.2 44 6.8 SSW 35 43 19 23 1013.5 1013.4 0.0
18/05:00pm 22.3 14.5 8.4 41 7.3 SW 39 46 21 25 1013.3 1013.2 0.0
18/04:30pm 22.5 14.7 8.2 40 7.5 SW 39 54 21 29 1013.0 1012.9 0.0
18/04:00pm 23.1 14.7 7.2 36 8.3 SSW 41 48 22 26 1013.1 1013.0 0.0
18/03:30pm 23.3 15.4 7.8 37 8.1 SW 39 50 21 27 1013.0 1012.9 0.0
18/03:00pm 23.0 14.8 8.3 39 7.8 SW 41 54 22 29 1012.9 1012.8 0.0
18/02:30pm 23.3 15.5 8.2 38 8.0 SSW 39 52 21 28 1012.7 1012.6 0.0
18/02:00pm 22.2 15.8 10.7 48 6.3 SSW 35 48 19 26 1012.9 1012.8 0.0
18/01:30pm 22.1 16.4 11.8 52 5.8 SW 33 46 18 25 1012.7 1012.6 0.0
18/01:00pm 22.0 16.7 9.9 46 6.6 WSW 28 46 15 25 1012.7 1012.6 0.0
18/12:59pm 22.8 17.7 10.6 46 6.7 WSW 28 46 15 25 1012.6 1012.5 0.0
18/12:30pm 20.5 14.4 9.7 50 5.8 WSW 32 39 17 21 1012.7 1012.6 0.0
18/12:00pm 19.7 11.7 10.4 55 5.0 WSW 43 52 23 28 1012.6 1012.5 0.0
18/11:30am 21.2 14.4 9.4 47 6.3 WSW 35 50 19 27 1012.0 1011.9 0.0
18/11:00am 20.9 15.1 9.5 48 6.1 WSW 30 43 16 23 1012.2 1012.1 0.0
18/10:30am 21.4 15.5 10.6 50 5.9 W 32 41 17 22 1012.1 1012.0 0.0
18/10:00am 20.1 14.4 9.9 52 5.5 W 30 43 16 23 1011.9 1011.8 0.0
18/09:30am 20.1 14.7 9.4 50 5.7 W 28 37 15 20 1011.7 1011.6 0.0
18/09:00am 20.0 14.6 9.6 51 5.5 W 28 37 15 20 1011.6 1011.5 0.0
18/08:30am 19.2 14.0 10.2 56 4.8 W 28 37 15 20 1011.3 1011.2 0.0
18/08:00am 18.8 14.3 10.1 57 4.6 W 24 33 13 18 1010.9 1010.8 0.0
18/07:30am 17.5 13.1 10.4 63 3.8 W 24 30 13 16 1010.7 1010.6 0.0
18/07:00am 13.9 12.2 8.5 70 2.7 NE 7 9 4 5 1010.5 1010.4 0.0
18/06:30am 12.6 11.5 8.3 75 2.1 NE 4 7 2 4 1010.1 1010.0 0.0
18/06:00am 12.3 11.2 8.6 78 1.8 NNE 4 7 2 4 1009.9 1009.8 0.0
18/05:30am 12.0 10.3 8.5 79 1.7 NE 7 11 4 6 1009.6 1009.5 0.0
18/05:00am 11.9 9.8 8.4 79 1.7 NE 9 11 5 6 1009.2 1009.1 0.0
18/04:30am 12.1 10.1 8.6 79 1.7 NE 9 11 5 6 1009.0 1008.9 0.0
18/04:00am 12.5 10.1 8.8 78 1.8 NE 11 11 6 6 1008.4 1008.4 0.0
18/03:30am 13.0 11.0 8.7 75 2.2 NE 9 13 5 7 1008.4 1008.4 0.0
18/03:00am 13.7 11.8 9.0 73 2.4 NE 9 13 5 7 1008.0 1008.0 0.0
18/02:30am 14.4 12.6 9.4 72 2.6 ENE 9 11 5 6 1008.1 1008.1 0.0
18/02:00am 13.5 12.4 8.4 71 2.5 ESE 4 9 2 5 1008.2 1008.2 0.0
18/01:30am 15.2 15.1 9.6 69 2.9 CALM 0 4 0 2 1008.3 1008.3 0.0
18/01:00am 15.3 14.1 9.4 68 3.0 SSW 6 7 3 4 1008.5 1008.5 0.0
18/12:30am 16.3 15.0 9.9 66 3.4 S 7 9 4 5 1008.8 1008.7 0.0
18/12:00am 16.4 14.8 10.3 67 3.2 SSW 9 11 5 6 1009.2 1009.1 0.0
 
Date/Time
CDT
Temp
°C
App
Temp
°C
Dew
Point
Rel
Hum
%
Delta-T
°C
Wind Press
QNH
hPa
Press
MSL
hPa
Rain
since 9 am
mm
Dir
 
Spd
km/h
Gust
km/h
Spd
kts
Gust
kts
17/11:30pm 16.7 14.3 9.9 64 3.6 SSW 13 17 7 9 1009.3 1009.2 0.0
17/11:00pm 16.7 13.8 9.6 63 3.7 S 15 20 8 11 1009.4 1009.3 0.0
17/10:30pm 17.4 14.1 9.6 60 4.1 SSW 17 20 9 11 1009.1 1009.0 0.0
17/10:00pm 17.5 14.0 8.6 56 4.6 S 17 19 9 10 1008.8 1008.7 0.0
17/09:30pm 17.8 14.8 7.5 51 5.2 S 13 19 7 10 1008.4 1008.4 0.0
17/09:00pm 18.5 14.4 6.4 45 6.0 S 17 20 9 11 1008.2 1008.2 0.0
17/08:30pm 19.1 15.5 2.9 34 7.5 S 11 13 6 7 1007.9 1007.9 0.0
17/08:00pm 21.0 18.0 2.3 29 8.7 S 7 11 4 6 1007.6 1007.6 0.0
17/07:30pm 21.8 18.2 3.0 29 9.0 S 11 15 6 8 1007.3 1007.3 0.0
17/07:00pm 21.6 17.2 2.8 29 8.9 SSW 15 20 8 11 1007.2 1007.2 0.0
17/06:30pm 21.1 16.8 3.3 31 8.5 SSW 15 22 8 12 1007.4 1007.4 0.0
17/06:00pm 21.8 17.1 3.0 29 9.0 SSW 17 24 9 13 1007.7 1007.7 0.0
17/05:30pm 22.3 17.6 3.4 29 9.1 SSW 17 28 9 15 1007.6 1007.6 0.0
17/05:00pm 22.5 17.2 3.1 28 9.3 SSW 20 30 11 16 1007.9 1007.9 0.0
17/04:30pm 22.5 17.2 3.1 28 9.3 SW 20 30 11 16 1008.2 1008.2 0.0
17/04:00pm 22.6 17.4 3.7 29 9.2 WSW 20 33 11 18 1008.4 1008.4 0.0
17/03:30pm 22.6 17.7 4.2 30 9.0 WSW 19 30 10 16 1008.8 1008.7 0.0
17/03:00pm 22.5 17.8 3.1 28 9.3 WSW 17 26 9 14 1008.7 1008.6 0.0
17/02:30pm 22.1 16.5 1.2 25 9.6 WSW 20 30 11 16 1009.3 1009.2 0.0
17/02:00pm 21.9 17.0 2.1 27 9.3 SW 17 28 9 15 1009.5 1009.4 0.0
17/01:30pm 21.5 16.3 3.7 31 8.6 W 20 30 11 16 1009.8 1009.7 0.0
17/01:00pm 21.1 16.5 5.5 36 7.7 SW 19 30 10 16 1010.2 1010.1 0.0
17/12:30pm 21.0 16.7 5.4 36 7.7 SW 17 32 9 17 1010.4 1010.3 0.0
17/12:00pm 19.5 15.0 4.0 36 7.4 SW 17 30 9 16 1010.6 1010.5 0.0
17/11:30am 19.2 15.7 5.3 40 6.8 SSW 13 24 7 13 1010.9 1010.8 0.0
17/11:00am 19.1 15.4 6.2 43 6.4 SSW 15 26 8 14 1011.1 1011.0 0.0
17/10:30am 18.0 15.4 5.9 45 5.9 WNW 9 17 5 9 1011.4 1011.3 0.0
17/10:00am 17.9 15.3 6.1 46 5.8 S 9 13 5 7 1011.6 1011.5 0.0
17/09:30am 17.3 15.7 6.2 48 5.4 SSW 4 9 2 5 1011.7 1011.6 0.0
17/09:00am 16.2 14.2 6.9 54 4.6 NNW 7 11 4 6 1011.9 1011.8 0.0
17/08:30am 15.8 13.9 6.5 54 4.5 N 6 9 3 5 1012.0 1011.9 0.0
17/08:00am 14.3 11.9 7.1 62 3.5 NNE 9 11 5 6 1011.9 1011.8 0.0
17/07:30am 13.0 10.5 6.6 65 3.1 NNE 9 11 5 6 1011.6 1011.5 0.0
17/07:00am 11.7 9.1 6.2 69 2.6 NNE 9 11 5 6 1011.5 1011.4 0.0
17/06:30am 10.3 7.2 5.7 73 2.1 NNE 11 13 6 7 1011.2 1011.1 0.0
17/06:00am 9.6 6.8 5.0 73 2.1 NNE 9 11 5 6 1010.7 1010.6 0.0
17/05:30am 11.6 9.0 5.9 68 2.7 ENE 9 9 5 5 1010.1 1010.0 0.0
17/05:00am 9.8 7.4 5.2 73 2.1 NE 7 9 4 5 1009.8 1009.7 0.0
17/04:30am 11.1 8.8 5.6 69 2.5 NE 7 9 4 5 1009.5 1009.4 0.0
17/04:00am 11.7 9.5 5.1 64 3.0 ENE 6 7 3 4 1009.3 1009.2 0.0
17/03:30am 13.3 11.6 5.7 60 3.6 SE 4 6 2 3 1009.2 1009.1 0.0
17/03:00am 13.5 11.3 5.4 58 3.8 SE 6 9 3 5 1009.1 1009.0 0.0
17/02:30am 14.2 11.6 6.1 58 3.9 SSE 9 13 5 7 1009.0 1008.9 0.0
17/02:00am 14.7 11.7 6.0 56 4.2 SSE 11 15 6 8 1009.2 1009.1 0.0
17/01:30am 14.7 12.0 5.8 55 4.3 SSE 9 13 5 7 1009.4 1009.3 0.0
17/01:00am 15.0 11.9 5.5 53 4.5 SSE 11 15 6 8 1009.5 1009.4 0.0
17/12:30am 15.4 11.8 5.0 50 4.9 SSE 13 19 7 10 1009.8 1009.7 0.0
17/12:00am 15.7 11.4 5.3 50 5.0 S 17 22 9 12 1009.8 1009.7 0.0
 
Date/Time
CDT
Temp
°C
App
Temp
°C
Dew
Point
Rel
Hum
%
Delta-T
°C
Wind Press
QNH
hPa
Press
MSL
hPa
Rain
since 9 am
mm
Dir
 
Spd
km/h
Gust
km/h
Spd
kts
Gust
kts
16/11:30pm 16.3 11.8 5.9 50 5.0 S 19 28 10 15 1009.7 1009.6 0.0
16/11:00pm 16.9 10.6 5.8 48 5.4 SSW 28 35 15 19 1009.5 1009.4 0.0
16/10:30pm 17.4 11.7 6.6 49 5.3 SSW 26 35 14 19 1009.4 1009.3 0.0
16/10:00pm 17.2 10.9 7.5 53 4.9 SSW 30 37 16 20 1009.4 1009.3 0.0
16/09:30pm 17.5 11.6 8.9 57 4.5 SSW 30 37 16 20 1009.1 1009.0 0.0
16/09:00pm 17.4 11.1 9.1 58 4.3 SSW 32 43 17 23 1008.9 1008.8 0.0
16/08:30pm 17.5 11.1 8.6 56 4.6 SSW 32 41 17 22 1008.4 1008.4 0.0
16/08:00pm 18.1 11.4 7.2 49 5.5 SSW 32 44 17 24 1008.0 1008.0 0.0
16/07:30pm 19.0 11.9 8.1 49 5.6 SSW 35 52 19 28 1007.5 1007.5 0.0
16/07:00pm 19.4 10.2 6.2 42 6.6 SSW 44 52 24 28 1007.0 1007.0 0.0
16/06:30pm 20.5 11.8 7.8 44 6.6 SW 43 54 23 29 1006.5 1006.5 0.0
16/06:00pm 20.7 11.7 6.3 39 7.3 SW 43 56 23 30 1006.0 1006.0 0.0

Other Formats:

Comma delimited format used in spreadsheet applications
http://www.bom.gov.au/fwo/IDS60801/IDS60801.95676.axf

JavaScript Object Notation format (JSON) in row-major order
http://www.bom.gov.au/fwo/IDS60801/IDS60801.95676.json